sensor_id;sensor_type;location;lat;lon;timestamp;pressure;altitude;pressure_sealevel;temperature;humidity
63946;BME280;50122;56.330;43.838;2023-04-20T00:02:37;101553.84;;;5.60;63.11
63946;BME280;50122;56.330;43.838;2023-04-20T00:05:09;101550.31;;;5.67;62.90
63946;BME280;50122;56.330;43.838;2023-04-20T00:07:37;101545.09;;;5.72;63.21
63946;BME280;50122;56.330;43.838;2023-04-20T00:10:04;101539.84;;;5.66;63.14
63946;BME280;50122;56.330;43.838;2023-04-20T00:12:31;101543.34;;;5.60;63.60
63946;BME280;50122;56.330;43.838;2023-04-20T00:14:58;101547.69;;;5.67;63.68
63946;BME280;50122;56.330;43.838;2023-04-20T00:17:24;101546.81;;;5.81;63.68
63946;BME280;50122;56.330;43.838;2023-04-20T00:19:51;101545.00;;;5.86;63.55
63946;BME280;50122;56.330;43.838;2023-04-20T00:22:18;101539.75;;;5.87;63.16
63946;BME280;50122;56.330;43.838;2023-04-20T00:24:45;101543.28;;;5.79;63.03
63946;BME280;50122;56.330;43.838;2023-04-20T00:27:12;101539.84;;;5.64;63.33
63946;BME280;50122;56.330;43.838;2023-04-20T00:29:39;101535.53;;;5.52;63.37
63946;BME280;50122;56.330;43.838;2023-04-20T00:32:05;101540.78;;;5.49;63.55
63946;BME280;50122;56.330;43.838;2023-04-20T00:34:34;101540.78;;;5.48;63.98
63946;BME280;50122;56.330;43.838;2023-04-20T00:37:01;101543.41;;;5.46;64.33
63946;BME280;50122;56.330;43.838;2023-04-20T00:39:27;101537.28;;;5.39;64.14
63946;BME280;50122;56.330;43.838;2023-04-20T00:42:02;101539.06;;;5.31;64.09
63946;BME280;50122;56.330;43.838;2023-04-20T00:44:29;101533.81;;;5.27;64.41
63946;BME280;50122;56.330;43.838;2023-04-20T00:46:57;101527.75;;;5.21;64.60
63946;BME280;50122;56.330;43.838;2023-04-20T00:49:29;101531.22;;;5.25;65.32
63946;BME280;50122;56.330;43.838;2023-04-20T00:51:59;101539.94;;;5.26;64.92
63946;BME280;50122;56.330;43.838;2023-04-20T00:54:27;101531.19;;;5.30;65.08
63946;BME280;50122;56.330;43.838;2023-04-20T00:56:55;101533.78;;;5.34;64.92
63946;BME280;50122;56.330;43.838;2023-04-20T00:59:23;101534.66;;;5.41;64.90
63946;BME280;50122;56.330;43.838;2023-04-20T01:01:54;101529.44;;;5.39;64.81
63946;BME280;50122;56.330;43.838;2023-04-20T01:04:21;101529.41;;;5.46;64.87
63946;BME280;50122;56.330;43.838;2023-04-20T01:06:48;101525.06;;;5.43;64.74
63946;BME280;50122;56.330;43.838;2023-04-20T01:09:15;101521.56;;;5.39;65.17
63946;BME280;50122;56.330;43.838;2023-04-20T01:11:42;101526.81;;;5.39;65.01
63946;BME280;50122;56.330;43.838;2023-04-20T01:14:08;101518.06;;;5.34;64.75
63946;BME280;50122;56.330;43.838;2023-04-20T01:16:35;101513.75;;;5.27;65.36
63946;BME280;50122;56.330;43.838;2023-04-20T01:19:02;101513.75;;;5.30;65.35
63946;BME280;50122;56.330;43.838;2023-04-20T01:21:29;101513.72;;;5.32;65.55
63946;BME280;50122;56.330;43.838;2023-04-20T01:23:57;101509.38;;;5.26;65.12
63946;BME280;50122;56.330;43.838;2023-04-20T01:26:23;101513.72;;;5.22;65.25
63946;BME280;50122;56.330;43.838;2023-04-20T01:28:51;101505.03;;;5.19;65.64
63946;BME280;50122;56.330;43.838;2023-04-20T01:31:18;101505.88;;;5.19;66.31
63946;BME280;50122;56.330;43.838;2023-04-20T01:33:45;101505.03;;;5.19;65.64
63946;BME280;50122;56.330;43.838;2023-04-20T01:36:12;101504.13;;;5.18;66.13
63946;BME280;50122;56.330;43.838;2023-04-20T01:38:39;101509.38;;;5.26;66.04
63946;BME280;50122;56.330;43.838;2023-04-20T01:41:07;101514.63;;;5.26;65.95
63946;BME280;50122;56.330;43.838;2023-04-20T01:43:35;101507.63;;;5.25;66.10
63946;BME280;50122;56.330;43.838;2023-04-20T01:46:02;101506.75;;;5.23;66.43
63946;BME280;50122;56.330;43.838;2023-04-20T01:48:30;101504.13;;;5.15;66.28
63946;BME280;50122;56.330;43.838;2023-04-20T01:50:57;101503.28;;;5.10;66.53
63946;BME280;50122;56.330;43.838;2023-04-20T01:53:25;101505.91;;;5.10;66.25
63946;BME280;50122;56.330;43.838;2023-04-20T01:55:52;101498.91;;;5.09;66.80
63946;BME280;50122;56.330;43.838;2023-04-20T01:58:19;101501.53;;;5.09;67.02
63946;BME280;50122;56.330;43.838;2023-04-20T02:00:47;101505.03;;;5.10;66.66
63946;BME280;50122;56.330;43.838;2023-04-20T02:03:13;101507.66;;;5.08;66.62
63946;BME280;50122;56.330;43.838;2023-04-20T02:05:40;101506.78;;;5.11;66.94
63946;BME280;50122;56.330;43.838;2023-04-20T02:08:07;101504.16;;;5.14;66.51
63946;BME280;50122;56.330;43.838;2023-04-20T02:10:34;101500.66;;;5.10;67.04
63946;BME280;50122;56.330;43.838;2023-04-20T02:13:01;101502.41;;;5.05;66.97
63946;BME280;50122;56.330;43.838;2023-04-20T02:15:27;101501.56;;;5.01;66.70
63946;BME280;50122;56.330;43.838;2023-04-20T02:17:54;101508.53;;;5.01;66.96
63946;BME280;50122;56.330;43.838;2023-04-20T02:20:21;101503.28;;;5.04;67.45
63946;BME280;50122;56.330;43.838;2023-04-20T02:22:49;101504.16;;;5.12;67.43
63946;BME280;50122;56.330;43.838;2023-04-20T02:25:16;101510.25;;;5.19;67.39
63946;BME280;50122;56.330;43.838;2023-04-20T02:27:43;101504.16;;;5.21;67.25
63946;BME280;50122;56.330;43.838;2023-04-20T02:30:10;101505.00;;;5.24;67.35
63946;BME280;50122;56.330;43.838;2023-04-20T02:32:37;101499.75;;;5.25;67.16
63946;BME280;50122;56.330;43.838;2023-04-20T02:35:04;101500.63;;;5.26;67.18
63946;BME280;50122;56.330;43.838;2023-04-20T02:37:32;101506.75;;;5.28;67.29
63946;BME280;50122;56.330;43.838;2023-04-20T02:39:59;101501.50;;;5.29;67.34
63946;BME280;50122;56.330;43.838;2023-04-20T02:42:25;101503.25;;;5.32;67.34
63946;BME280;50122;56.330;43.838;2023-04-20T02:44:52;101504.97;;;5.34;67.14
63946;BME280;50122;56.330;43.838;2023-04-20T02:47:19;101503.22;;;5.38;66.97
63946;BME280;50122;56.330;43.838;2023-04-20T02:49:46;101501.47;;;5.38;66.71
63946;BME280;50122;56.330;43.838;2023-04-20T02:52:13;101500.59;;;5.39;66.83
63946;BME280;50122;56.330;43.838;2023-04-20T02:54:41;101508.44;;;5.46;67.27
63946;BME280;50122;56.330;43.838;2023-04-20T02:57:07;101501.44;;;5.49;67.26
63946;BME280;50122;56.330;43.838;2023-04-20T02:59:36;101498.81;;;5.52;66.98
63946;BME280;50122;56.330;43.838;2023-04-20T03:02:03;101506.63;;;5.60;66.81
63946;BME280;50122;56.330;43.838;2023-04-20T03:04:30;101498.75;;;5.62;66.65
63946;BME280;50122;56.330;43.838;2023-04-20T03:06:58;101493.50;;;5.69;66.50
63946;BME280;50122;56.330;43.838;2023-04-20T03:09:26;101498.69;;;5.79;66.55
63946;BME280;50122;56.330;43.838;2023-04-20T03:11:53;101499.56;;;5.84;66.37
63946;BME280;50122;56.330;43.838;2023-04-20T03:14:20;101496.91;;;5.90;66.52
63946;BME280;50122;56.330;43.838;2023-04-20T03:16:46;101493.38;;;5.99;66.26
63946;BME280;50122;56.330;43.838;2023-04-20T03:19:14;101494.25;;;6.04;65.93
63946;BME280;50122;56.330;43.838;2023-04-20T03:21:41;101489.84;;;6.04;65.54
63946;BME280;50122;56.330;43.838;2023-04-20T03:24:09;101489.78;;;6.14;65.55
63946;BME280;50122;56.330;43.838;2023-04-20T03:26:36;101495.03;;;6.20;65.49
63946;BME280;50122;56.330;43.838;2023-04-20T03:29:02;101490.59;;;6.23;65.34
63946;BME280;50122;56.330;43.838;2023-04-20T03:31:29;101482.69;;;6.28;65.29
63946;BME280;50122;56.330;43.838;2023-04-20T03:33:56;101488.81;;;6.33;65.36
63946;BME280;50122;56.330;43.838;2023-04-20T03:36:25;101487.00;;;6.38;65.33
63946;BME280;50122;56.330;43.838;2023-04-20T03:38:53;101484.38;;;6.43;65.21
63946;BME280;50122;56.330;43.838;2023-04-20T03:41:20;101489.53;;;6.51;65.08
63946;BME280;50122;56.330;43.838;2023-04-20T03:43:48;101484.22;;;6.58;64.68
63946;BME280;50122;56.330;43.838;2023-04-20T03:46:14;101480.66;;;6.69;64.47
63946;BME280;50122;56.330;43.838;2023-04-20T03:48:41;101484.06;;;6.78;64.40
63946;BME280;50122;56.330;43.838;2023-04-20T03:51:08;101481.34;;;6.89;64.16
63946;BME280;50122;56.330;43.838;2023-04-20T03:53:36;101480.41;;;6.95;63.89
63946;BME280;50122;56.330;43.838;2023-04-20T03:56:05;101480.31;;;7.04;63.35
63946;BME280;50122;56.330;43.838;2023-04-20T03:58:33;101474.13;;;7.10;63.36
63946;BME280;50122;56.330;43.838;2023-04-20T04:01:04;101479.28;;;7.18;63.02
63946;BME280;50122;56.330;43.838;2023-04-20T04:03:35;101478.41;;;7.20;62.96
63946;BME280;50122;56.330;43.838;2023-04-20T04:06:02;101478.34;;;7.28;63.04
63946;BME280;50122;56.330;43.838;2023-04-20T04:08:29;101480.00;;;7.37;62.54
63946;BME280;50122;56.330;43.838;2023-04-20T04:10:58;101484.28;;;7.42;62.88
63946;BME280;50122;56.330;43.838;2023-04-20T04:13:25;101476.31;;;7.50;62.12
63946;BME280;50122;56.330;43.838;2023-04-20T04:15:52;101482.34;;;7.57;62.40
63946;BME280;50122;56.330;43.838;2023-04-20T04:18:20;101473.53;;;7.62;61.93
63946;BME280;50122;56.330;43.838;2023-04-20T04:20:47;101468.22;;;7.64;61.89
63946;BME280;50122;56.330;43.838;2023-04-20T04:23:13;101469.09;;;7.68;61.87
63946;BME280;50122;56.330;43.838;2023-04-20T04:25:40;101469.91;;;7.71;61.90
63946;BME280;50122;56.330;43.838;2023-04-20T04:28:07;101469.84;;;7.77;61.68
